# Tabular Observed and Forecast Hydrograph Information
#
# Location: Klamath River - Keno (KEOO3)
#
# File Generation Time: 05/08/2026 at 08:15 AM PDT
# Data Interval: 1 Hour
#
# Most Recent Date & Time of Maximum Observed: 05/03/2026 at 10:00 PM PDT
# Maximum Observed Stage: 5.32 Feet
# Maximum Observed Flow: 1043 cfs
#
# Earliest Date & Time of Maximum Forecast: 05/12/2026 at 04:00 PM PDT
# Maximum Forecast Stage: 5.28 Feet
# Maximum Forecast Flow: 1022 cfs
#
# OBSERVED
#
# Date & Time (Local) Stage (Feet) Flow (cfs) Trend Observed Status
# ---------------------------------------------------------------------------------
05/03/2026 08 AM PDT 5.29 1027 Not Applicable
05/03/2026 09 AM PDT 5.29 1027 0 Not Applicable
05/03/2026 10 AM PDT 5.29 1027 0 Not Applicable
05/03/2026 11 AM PDT 5.30 1032 + Not Applicable
05/03/2026 12 PM PDT 5.30 1032 0 Not Applicable
05/03/2026 01 PM PDT 5.29 1027 - Not Applicable
05/03/2026 02 PM PDT 5.30 1032 + Not Applicable
05/03/2026 03 PM PDT 5.31 1037 + Not Applicable
05/03/2026 04 PM PDT 5.31 1037 0 Not Applicable
05/03/2026 05 PM PDT 5.30 1032 - Not Applicable
05/03/2026 06 PM PDT 5.29 1027 - Not Applicable
05/03/2026 07 PM PDT 5.30 1032 + Not Applicable
05/03/2026 08 PM PDT 5.30 1032 0 Not Applicable
05/03/2026 09 PM PDT 5.30 1032 0 Not Applicable
05/03/2026 10 PM PDT 5.32 1043 + Not Applicable
05/03/2026 11 PM PDT 5.31 1037 - Not Applicable
05/04/2026 12 AM PDT 5.29 1027 - Not Applicable
05/04/2026 01 AM PDT 5.30 1032 + Not Applicable
05/04/2026 02 AM PDT 5.31 1037 + Not Applicable
05/04/2026 03 AM PDT 5.29 1027 - Not Applicable
05/04/2026 04 AM PDT 5.31 1037 + Not Applicable
05/04/2026 05 AM PDT 5.30 1032 - Not Applicable
05/04/2026 06 AM PDT 5.30 1032 0 Not Applicable
05/04/2026 07 AM PDT 5.30 1032 0 Not Applicable
05/04/2026 08 AM PDT 5.24 1001 - Not Applicable
05/04/2026 09 AM PDT 5.25 1006 + Not Applicable
05/04/2026 10 AM PDT 5.25 1006 0 Not Applicable
05/04/2026 11 AM PDT 5.26 1011 + Not Applicable
05/04/2026 12 PM PDT 5.26 1011 0 Not Applicable
05/04/2026 01 PM PDT 5.27 1016 + Not Applicable
05/04/2026 02 PM PDT 5.27 1016 0 Not Applicable
05/04/2026 03 PM PDT 5.26 1011 - Not Applicable
05/04/2026 04 PM PDT 5.26 1011 0 Not Applicable
05/04/2026 05 PM PDT 5.26 1011 0 Not Applicable
05/04/2026 06 PM PDT 5.25 1006 - Not Applicable
05/04/2026 07 PM PDT 5.24 1001 - Not Applicable
05/04/2026 08 PM PDT 5.24 1001 0 Not Applicable
05/04/2026 09 PM PDT 5.25 1006 + Not Applicable
05/04/2026 10 PM PDT 5.25 1006 0 Not Applicable
05/04/2026 11 PM PDT 5.25 1006 0 Not Applicable
05/05/2026 12 AM PDT 5.26 1011 + Not Applicable
05/05/2026 01 AM PDT 5.26 1011 0 Not Applicable
05/05/2026 02 AM PDT 5.25 1006 - Not Applicable
05/05/2026 03 AM PDT 5.24 1001 - Not Applicable
05/05/2026 04 AM PDT 5.26 1011 + Not Applicable
05/05/2026 05 AM PDT 5.26 1011 0 Not Applicable
05/05/2026 06 AM PDT 5.24 1001 - Not Applicable
05/05/2026 07 AM PDT 5.25 1006 + Not Applicable
05/05/2026 08 AM PDT 5.24 1001 - Not Applicable
05/05/2026 09 AM PDT 5.26 1011 + Not Applicable
05/05/2026 10 AM PDT 5.26 1011 0 Not Applicable
05/05/2026 11 AM PDT 5.25 1006 - Not Applicable
05/05/2026 12 PM PDT 5.26 1011 + Not Applicable
05/05/2026 01 PM PDT 5.25 1006 - Not Applicable
05/05/2026 02 PM PDT 5.26 1011 + Not Applicable
05/05/2026 03 PM PDT 5.27 1016 + Not Applicable
05/05/2026 04 PM PDT 5.26 1011 - Not Applicable
05/05/2026 05 PM PDT 5.24 1001 - Not Applicable
05/05/2026 06 PM PDT 5.25 1006 + Not Applicable
05/05/2026 07 PM PDT 5.25 1006 0 Not Applicable
05/05/2026 08 PM PDT 5.23 996 - Not Applicable
05/05/2026 09 PM PDT 5.22 990 - Not Applicable
05/05/2026 10 PM PDT 5.22 990 0 Not Applicable
05/05/2026 11 PM PDT 5.22 990 0 Not Applicable
05/06/2026 12 AM PDT 5.24 1001 + Not Applicable
05/06/2026 01 AM PDT 5.24 1001 0 Not Applicable
05/06/2026 02 AM PDT 5.24 1001 0 Not Applicable
05/06/2026 03 AM PDT 5.24 1001 0 Not Applicable
05/06/2026 04 AM PDT 5.22 990 - Not Applicable
05/06/2026 05 AM PDT 5.21 985 - Not Applicable
05/06/2026 06 AM PDT 5.22 990 + Not Applicable
05/06/2026 07 AM PDT 5.23 996 + Not Applicable
05/06/2026 08 AM PDT 5.24 1001 + Not Applicable
05/06/2026 09 AM PDT 5.22 990 - Not Applicable
05/06/2026 10 AM PDT 5.23 996 + Not Applicable
05/06/2026 11 AM PDT 5.24 1001 + Not Applicable
05/06/2026 12 PM PDT 5.23 996 - Not Applicable
05/06/2026 01 PM PDT 5.22 990 - Not Applicable
05/06/2026 02 PM PDT 5.23 996 + Not Applicable
05/06/2026 03 PM PDT 5.24 1001 + Not Applicable
05/06/2026 04 PM PDT 5.24 1001 0 Not Applicable
05/06/2026 05 PM PDT 5.23 996 - Not Applicable
05/06/2026 06 PM PDT 5.23 996 0 Not Applicable
05/06/2026 07 PM PDT 5.24 1001 + Not Applicable
05/06/2026 08 PM PDT 5.24 1001 0 Not Applicable
05/06/2026 09 PM PDT 5.23 996 - Not Applicable
05/06/2026 10 PM PDT 5.23 996 0 Not Applicable
05/06/2026 11 PM PDT 5.23 996 0 Not Applicable
05/07/2026 12 AM PDT 5.24 1001 + Not Applicable
05/07/2026 01 AM PDT 5.23 996 - Not Applicable
05/07/2026 02 AM PDT 5.23 996 0 Not Applicable
05/07/2026 03 AM PDT 5.23 996 0 Not Applicable
05/07/2026 04 AM PDT 5.23 996 0 Not Applicable
05/07/2026 05 AM PDT 5.22 990 - Not Applicable
05/07/2026 06 AM PDT 5.24 1001 + Not Applicable
05/07/2026 07 AM PDT 5.23 996 - Not Applicable
05/07/2026 08 AM PDT 5.21 985 - Not Applicable
05/07/2026 09 AM PDT 5.22 990 + Not Applicable
05/07/2026 10 AM PDT 5.23 996 + Not Applicable
05/07/2026 11 AM PDT 5.24 1001 + Not Applicable
05/07/2026 12 PM PDT 5.23 996 - Not Applicable
05/07/2026 01 PM PDT 5.23 996 0 Not Applicable
05/07/2026 02 PM PDT 5.23 996 0 Not Applicable
05/07/2026 03 PM PDT 5.24 1001 + Not Applicable
05/07/2026 04 PM PDT 5.24 1001 0 Not Applicable
05/07/2026 05 PM PDT 5.24 1001 0 Not Applicable
05/07/2026 06 PM PDT 5.25 1006 + Not Applicable
05/07/2026 07 PM PDT 5.25 1006 0 Not Applicable
05/07/2026 08 PM PDT 5.26 1011 + Not Applicable
05/07/2026 09 PM PDT 5.22 990 - Not Applicable
05/07/2026 10 PM PDT 5.24 1001 + Not Applicable
05/07/2026 11 PM PDT 5.24 1001 0 Not Applicable
05/08/2026 12 AM PDT 5.24 1001 0 Not Applicable
05/08/2026 01 AM PDT 5.24 1001 0 Not Applicable
05/08/2026 02 AM PDT 5.25 1006 + Not Applicable
05/08/2026 03 AM PDT 5.24 1001 - Not Applicable
05/08/2026 04 AM PDT 5.23 996 - Not Applicable
05/08/2026 05 AM PDT 5.24 1001 + Not Applicable
05/08/2026 06 AM PDT 5.24 1001 0 Not Applicable
05/08/2026 07 AM PDT 5.24 1001 0 Not Applicable
05/08/2026 08 AM PDT 5.23 996 - Not Applicable
#
# FORECAST
#
# Date & Time (Local) Stage (Feet) Flow (cfs) Trend Forecast Status
# ---------------------------------------------------------------------------------
05/08/2026 09 AM PDT 5.23 996 Not Applicable
05/08/2026 10 AM PDT 5.23 996 0 Not Applicable
05/08/2026 11 AM PDT 5.23 996 0 Not Applicable
05/08/2026 12 PM PDT 5.23 996 0 Not Applicable
05/08/2026 01 PM PDT 5.23 996 0 Not Applicable
05/08/2026 02 PM PDT 5.24 1001 + Not Applicable
05/08/2026 03 PM PDT 5.24 1001 0 Not Applicable
05/08/2026 04 PM PDT 5.25 1006 + Not Applicable
05/08/2026 05 PM PDT 5.25 1006 0 Not Applicable
05/08/2026 06 PM PDT 5.25 1006 0 Not Applicable
05/08/2026 07 PM PDT 5.25 1006 0 Not Applicable
05/08/2026 08 PM PDT 5.25 1006 0 Not Applicable
05/08/2026 09 PM PDT 5.25 1006 0 Not Applicable
05/08/2026 10 PM PDT 5.25 1006 0 Not Applicable
05/08/2026 11 PM PDT 5.25 1006 0 Not Applicable
05/09/2026 12 AM PDT 5.25 1006 0 Not Applicable
05/09/2026 01 AM PDT 5.25 1006 0 Not Applicable
05/09/2026 02 AM PDT 5.25 1006 0 Not Applicable
05/09/2026 03 AM PDT 5.26 1011 + Not Applicable
05/09/2026 04 AM PDT 5.26 1011 0 Not Applicable
05/09/2026 05 AM PDT 5.26 1011 0 Not Applicable
05/09/2026 06 AM PDT 5.26 1011 0 Not Applicable
05/09/2026 07 AM PDT 5.26 1011 0 Not Applicable
05/09/2026 08 AM PDT 5.26 1011 0 Not Applicable
05/09/2026 09 AM PDT 5.26 1011 0 Not Applicable
05/09/2026 10 AM PDT 5.26 1011 0 Not Applicable
05/09/2026 11 AM PDT 5.26 1011 0 Not Applicable
05/09/2026 12 PM PDT 5.26 1011 0 Not Applicable
05/09/2026 01 PM PDT 5.26 1011 0 Not Applicable
05/09/2026 02 PM PDT 5.26 1011 0 Not Applicable
05/09/2026 03 PM PDT 5.26 1011 0 Not Applicable
05/09/2026 04 PM PDT 5.26 1011 0 Not Applicable
05/09/2026 05 PM PDT 5.26 1011 0 Not Applicable
05/09/2026 06 PM PDT 5.26 1011 0 Not Applicable
05/09/2026 07 PM PDT 5.26 1011 0 Not Applicable
05/09/2026 08 PM PDT 5.26 1011 0 Not Applicable
05/09/2026 09 PM PDT 5.26 1011 0 Not Applicable
05/09/2026 10 PM PDT 5.26 1011 0 Not Applicable
05/09/2026 11 PM PDT 5.26 1011 0 Not Applicable
05/10/2026 12 AM PDT 5.26 1011 0 Not Applicable
05/10/2026 01 AM PDT 5.26 1011 0 Not Applicable
05/10/2026 02 AM PDT 5.26 1011 0 Not Applicable
05/10/2026 03 AM PDT 5.26 1011 0 Not Applicable
05/10/2026 04 AM PDT 5.26 1011 0 Not Applicable
05/10/2026 05 AM PDT 5.26 1011 0 Not Applicable
05/10/2026 06 AM PDT 5.26 1011 0 Not Applicable
05/10/2026 07 AM PDT 5.26 1011 0 Not Applicable
05/10/2026 08 AM PDT 5.26 1011 0 Not Applicable
05/10/2026 09 AM PDT 5.26 1011 0 Not Applicable
05/10/2026 10 AM PDT 5.26 1011 0 Not Applicable
05/10/2026 11 AM PDT 5.26 1011 0 Not Applicable
05/10/2026 12 PM PDT 5.26 1011 0 Not Applicable
05/10/2026 01 PM PDT 5.26 1011 0 Not Applicable
05/10/2026 02 PM PDT 5.26 1011 0 Not Applicable
05/10/2026 03 PM PDT 5.26 1011 0 Not Applicable
05/10/2026 04 PM PDT 5.26 1011 0 Not Applicable
05/10/2026 05 PM PDT 5.26 1011 0 Not Applicable
05/10/2026 06 PM PDT 5.26 1011 0 Not Applicable
05/10/2026 07 PM PDT 5.26 1011 0 Not Applicable
05/10/2026 08 PM PDT 5.26 1011 0 Not Applicable
05/10/2026 09 PM PDT 5.26 1011 0 Not Applicable
05/10/2026 10 PM PDT 5.26 1011 0 Not Applicable
05/10/2026 11 PM PDT 5.26 1011 0 Not Applicable
05/11/2026 12 AM PDT 5.27 1016 + Not Applicable
05/11/2026 01 AM PDT 5.27 1016 0 Not Applicable
05/11/2026 02 AM PDT 5.27 1016 0 Not Applicable
05/11/2026 03 AM PDT 5.27 1016 0 Not Applicable
05/11/2026 04 AM PDT 5.27 1016 0 Not Applicable
05/11/2026 05 AM PDT 5.27 1016 0 Not Applicable
05/11/2026 06 AM PDT 5.27 1016 0 Not Applicable
05/11/2026 07 AM PDT 5.27 1016 0 Not Applicable
05/11/2026 08 AM PDT 5.27 1016 0 Not Applicable
05/11/2026 09 AM PDT 5.27 1016 0 Not Applicable
05/11/2026 10 AM PDT 5.27 1016 0 Not Applicable
05/11/2026 11 AM PDT 5.27 1016 0 Not Applicable
05/11/2026 12 PM PDT 5.27 1016 0 Not Applicable
05/11/2026 01 PM PDT 5.27 1016 0 Not Applicable
05/11/2026 02 PM PDT 5.27 1016 0 Not Applicable
05/11/2026 03 PM PDT 5.27 1016 0 Not Applicable
05/11/2026 04 PM PDT 5.27 1016 0 Not Applicable
05/11/2026 05 PM PDT 5.27 1016 0 Not Applicable
05/11/2026 06 PM PDT 5.27 1016 0 Not Applicable
05/11/2026 07 PM PDT 5.27 1016 0 Not Applicable
05/11/2026 08 PM PDT 5.27 1016 0 Not Applicable
05/11/2026 09 PM PDT 5.27 1016 0 Not Applicable
05/11/2026 10 PM PDT 5.27 1016 0 Not Applicable
05/11/2026 11 PM PDT 5.27 1016 0 Not Applicable
05/12/2026 12 AM PDT 5.27 1016 0 Not Applicable
05/12/2026 01 AM PDT 5.27 1016 0 Not Applicable
05/12/2026 02 AM PDT 5.27 1016 0 Not Applicable
05/12/2026 03 AM PDT 5.27 1016 0 Not Applicable
05/12/2026 04 AM PDT 5.27 1016 0 Not Applicable
05/12/2026 05 AM PDT 5.27 1016 0 Not Applicable
05/12/2026 06 AM PDT 5.27 1016 0 Not Applicable
05/12/2026 07 AM PDT 5.27 1016 0 Not Applicable
05/12/2026 08 AM PDT 5.27 1016 0 Not Applicable
05/12/2026 09 AM PDT 5.27 1016 0 Not Applicable
05/12/2026 10 AM PDT 5.27 1016 0 Not Applicable
05/12/2026 11 AM PDT 5.27 1016 0 Not Applicable
05/12/2026 12 PM PDT 5.27 1016 0 Not Applicable
05/12/2026 01 PM PDT 5.27 1016 0 Not Applicable
05/12/2026 02 PM PDT 5.27 1016 0 Not Applicable
05/12/2026 03 PM PDT 5.27 1016 0 Not Applicable
05/12/2026 04 PM PDT 5.28 1022 + Not Applicable
05/12/2026 05 PM PDT 5.28 1022 0 Not Applicable
05/12/2026 06 PM PDT 5.28 1022 0 Not Applicable
05/12/2026 07 PM PDT 5.28 1022 0 Not Applicable
05/12/2026 08 PM PDT 5.28 1022 0 Not Applicable
05/12/2026 09 PM PDT 5.28 1022 0 Not Applicable
05/12/2026 10 PM PDT 5.28 1022 0 Not Applicable
05/12/2026 11 PM PDT 5.28 1022 0 Not Applicable
05/13/2026 12 AM PDT 5.28 1022 0 Not Applicable
05/13/2026 01 AM PDT 5.28 1022 0 Not Applicable
05/13/2026 02 AM PDT 5.28 1022 0 Not Applicable
05/13/2026 03 AM PDT 5.28 1022 0 Not Applicable
05/13/2026 04 AM PDT 5.28 1022 0 Not Applicable
05/13/2026 05 AM PDT 5.28 1022 0 Not Applicable
#
# NOTE 1: Stages are rounded to the nearest hundredth (.01) of a foot.
# NOTE 2: Flows are rounded to the nearest (1) cfs.
# NOTE 3: Trends are determined using hourly change in unrounded stage and flow.
# NOTE 4: Maximum Values are determined using unrounded stage and flow.
|